| Date | Time | Temp. (oF) | Dew Point (oF) | Rel. Hum. (%) | Press. (in.) | Wind Dir. | Wind Speed (mph) | Hourly Rainfall (in.) |
|
|---|---|---|---|---|---|---|---|---|---|
| 1 | miss | miss | miss | miss | miss | miss | miss | miss | |
| 2 | 03/10 | 16:05 | 44 | 42 | 94 | 30.07 | ESE | 3 | 0.01 |
| 3 | miss | miss | miss | miss | miss | miss | miss | miss | |
| 4 | 03/10 | 16:05 | 44 | 42 | 94 | 30.07 | ESE | 3 | 0.01 |
| 5 | miss | miss | miss | miss | miss | miss | miss | miss | |
| 6 | 03/10 | 16:05 | 44 | 42 | 94 | 30.07 | ESE | 3 | 0.01 |
| 7 | miss | miss | miss | miss | miss | miss | miss | miss | |
| 8 | 03/10 | 16:05 | 44 | 42 | 94 | 30.07 | ESE | 3 | 0.01 |
| 9 | 03/10 | 16:00 | 44 | 42 | 94 | 30.07 | ESE | 3 | 0.05 |
| 10 | 03/10 | 15:00 | 46 | 44 | 93 | 30.09 | SSE | 0 | 0.06 |
| 11 | 03/10 | 14:00 | 47 | 43 | 89 | 30.12 | S | 3 | 0.02 |
| 12 | 03/10 | 13:00 | 50 | 42 | 75 | 30.15 | SSE | 0 | 0.00 |
| 13 | 03/10 | 12:00 | 50 | 39 | 67 | 30.17 | SSE | 4 | 0.00 |
| 14 | 03/10 | 11:00 | 49 | 38 | 66 | 30.19 | ESE | 3 | 0.00 |
| 15 | 03/10 | 10:00 | 45 | 36 | 71 | 30.22 | ENE | 2 | 0.00 |
| 16 | 03/10 | 09:00 | 37 | 35 | 95 | 30.24 | S | 0 | 0.00 |
| 17 | 03/10 | 08:00 | 32 | 31 | 97 | 30.25 | S | 0 | 0.00 |
| 18 | 03/10 | 07:00 | 28 | 27 | 97 | 30.25 | ESE | 0 | 0.00 |
| 19 | 03/10 | 06:00 | 29 | 28 | 97 | 30.26 | NNE | 0 | 0.00 |
| 20 | 03/10 | 05:00 | 29 | 28 | 97 | 30.24 | ESE | 0 | 0.00 |
| 21 | 03/10 | 04:00 | 29 | 28 | 97 | 30.23 | N | 0 | 0.00 |
| 22 | 03/10 | 03:00 | 29 | 27 | 95 | 30.22 | S | 0 | 0.00 |
| 23 | 03/10 | 02:00 | 30 | 28 | 94 | 30.24 | NNE | 0 | 0.00 |
| 24 | 03/10 | 01:00 | 32 | 29 | 92 | 30.25 | NE | 0 | 0.00 |